KMCI/MCI METAR and TAF weather

Enter ICAO airport designator
Station Type Date Time Source
KMCI METAR 2020/04/06 13:53 UTC NOAA

KMCI 061353Z 18009KT 5SM BR OVC011 14/12 A2995 RMK AO2 SLP138 T01390122 $


Station Type Date Time Source
KMCI Decoded METAR 2020/04/06 13:53 UTC NOAA

KANSAS CITY INTERNATIONAL AIRPORT, MO, United States (KMCI) 39-18N 94-44W 320M
Apr 06, 2020 - 09:53 AM EDT / 2020.04.06 1353 UTC
Wind: from the S (180 degrees) at 10 MPH (9 KT):0
Visibility: 5 mile(s):0
Sky conditions: overcast
Weather: mist
Temperature: 57.0 F (13.9 C)
Dew Point: 54.0 F (12.2 C)
Relative Humidity: 89%
Pressure (altimeter): 29.95 in. Hg (1014 hPa)
ob: KMCI 061353Z 18009KT 5SM BR OVC011 14/12 A2995 RMK AO2 SLP138 T01390122
cycle: 14

Station Type Date Time Source
KMCI TAF 2020/04/06 12:22 UTC NOAA

TAF KMCI 061120Z 0612/0712 16008KT P6SM OVC025
TEMPO 0612/0615 SCT025 OVC040
FM061500 18012G20KT P6SM OVC025
FM062100 19012G20KT P6SM BKN030
FM070000 19012KT P6SM SCT040
FM070600 19012KT P6SM BKN015 WS020/23040KT

Example: see airport list